Jack Holland — WDF3615 — position and weather

sailwx.info

Track history (hours):
 
Tides and Currents Weather Stations Pressure Air Temp Water Temp Dewpoint Dewpoint Depression Visibility Wind Speed Wind Dir Waves Ship Positions

Jack Holland

Owner: Norfolk Tug Company, Norfolk, VA. More information available from US FCC via Universal Licensing System and Coast Guard Vessel Documentation Center.

Last reported at 2014-Oct-25 03:25 UTC. Time now 2014-Oct-26 07:03 UTC.
Position N 32°08' W 080°53'.

Length 22 m; draft 2.5 m.

Type: Tug. MMSI: 367442020.

Date/timePositionNaut miles runAvg speedWind from/ knotsBaromVisibWave heightAir tempDewpointWater temp
2014-Oct-25 03:25N 32°08' W 080°53'5 5.0
2014-Oct-25 02:28N 32°05' W 080°57'5 6.0
2014-Oct-25 01:33N 32°02' W 081°03'  
2014-Oct-21 07:28N 27°05' W 080°08'4 4.0
2014-Oct-21 06:33N 27°01' W 080°06'5 4.7
2014-Oct-21 05:33N 26°57' W 080°05'3 3.2
2014-Oct-21 04:33N 26°54' W 080°04'4 3.6
2014-Oct-21 03:31N 26°50' W 080°04'22 5.0
2014-Oct-20 23:06N 26°28' W 080°04'3 4.5
2014-Oct-20 22:30N 26°25' W 080°04'5 5.5
2014-Oct-20 21:33N 26°20' W 080°05'5 5.3
2014-Oct-20 20:33N 26°15' W 080°05'5 5.4
2014-Oct-20 19:33N 26°09' W 080°06'5 4.7
2014-Oct-20 18:33N 26°05' W 080°07'5 5.2
2014-Oct-20 17:33N 25°59' W 080°07'5 4.9
2014-Oct-20 16:34N 25°55' W 080°08'8 0.3
2014-Oct-19 16:19N 25°46' W 080°09'1 0.2
2014-Oct-19 12:33N 25°46' W 080°09'3 3.0
2014-Oct-19 11:32N 25°49' W 080°10'0 0.0
2014-Oct-19 10:33N 25°49' W 080°10'0 0.0
2014-Oct-19 09:28N 25°49' W 080°10'0 0.0
2014-Oct-19 08:30N 25°49' W 080°10'3 2.3
2014-Oct-19 07:11N 25°46' W 080°09'1 1.2
2014-Oct-19 06:25N 25°46' W 080°09'2 2.8
2014-Oct-19 05:33N 25°49' W 080°10'0 0.2
2014-Oct-19 03:13N 25°49' W 080°10'2 0.4
2014-Oct-18 21:31N 25°47' W 080°10'2 1.0
2014-Oct-18 19:26N 25°49' W 080°10'2 1.0
2014-Oct-18 17:17N 25°47' W 080°10'2 2.1
2014-Oct-18 16:16N 25°49' W 080°10'2 2.4
2014-Oct-18 15:23N 25°47' W 080°10'2 0.4
2014-Oct-18 10:28N 25°49' W 080°10'1 0.1
2014-Oct-18 04:23N 25°49' W 080°10'3 0.4
2014-Oct-17 20:27N 25°46' W 080°09'3 1.7
2014-Oct-17 18:29N 25°49' W 080°10'0 0.2
2014-Oct-17 17:23N 25°49' W 080°11'0 0.1
2014-Oct-17 13:16N 25°49' W 080°10'0 0.1
2014-Oct-17 10:32N 25°49' W 080°10'1 0.1
2014-Oct-17 05:33N 25°49' W 080°10'2 1.5
2014-Oct-17 04:32N 25°48' W 080°11'2 1.4
2014-Oct-17 03:13N 25°46' W 080°09'3 2.5
2014-Oct-17 02:10N 25°49' W 080°10'3 4.4
2014-Oct-17 01:27N 25°46' W 080°08'3 0.6
2014-Oct-16 20:07N 25°49' W 080°10'0 0.0
2014-Oct-16 13:27N 25°49' W 080°10'3 3.0
2014-Oct-16 12:25N 25°46' W 080°09'3 0.7
2014-Oct-16 08:20N 25°48' W 080°11'1 0.9
2014-Oct-16 07:23N 25°49' W 080°11'0 0.0
2014-Oct-16 05:32N 25°49' W 080°11'0 0.4
2014-Oct-16 04:33N 25°49' W 080°10'3 3.0
2014-Oct-16 03:27N 25°46' W 080°08'3 3.1
2014-Oct-16 02:33N 25°48' W 080°11'2 1.6
2014-Oct-16 01:32N 25°49' W 080°10'3 2.4
2014-Oct-16 00:22N 25°46' W 080°09'0 0.0
2014-Oct-15 20:07N 25°46' W 080°09'3 5.1
2014-Oct-15 19:29N 25°49' W 080°10'3 1.4
2014-Oct-15 17:08N 25°46' W 080°09'3 5.3
2014-Oct-15 16:32N 25°49' W 080°11'2 1.7
2014-Oct-15 15:31N 25°47' W 080°11'2 0.2
2014-Oct-15 07:31N 25°49' W 080°10'2 0.6
2014-Oct-15 04:11N 25°47' W 080°10'2 3.1
2014-Oct-15 03:31N 25°49' W 080°10'  
Track history (hours):
 
Tides and Currents Weather Stations Pressure Air Temp Water Temp Dewpoint Dewpoint Depression Visibility Wind Speed Wind Dir Waves Ship Positions

Jack Holland

Owner: Norfolk Tug Company, Norfolk, VA. More information available from US FCC via Universal Licensing System and Coast Guard Vessel Documentation Center.

Last reported at 2014-Oct-25 03:25 UTC. Time now 2014-Oct-26 07:03 UTC.
Position N 32°08' W 080°53'.

Length 22 m; draft 2.5 m.

Type: Tug. MMSI: 367442020.

Date/timePositionNaut miles runAvg speedWind from/ knotsBaromVisibWave heightAir tempDewpointWater temp
2014-Oct-25 03:25N 32°08' W 080°53'5 5.0
2014-Oct-25 02:28N 32°05' W 080°57'5 6.0
2014-Oct-25 01:33N 32°02' W 081°03'  
2014-Oct-21 07:28N 27°05' W 080°08'4 4.0
2014-Oct-21 06:33N 27°01' W 080°06'5 4.7
2014-Oct-21 05:33N 26°57' W 080°05'3 3.2
2014-Oct-21 04:33N 26°54' W 080°04'4 3.6
2014-Oct-21 03:31N 26°50' W 080°04'22 5.0
2014-Oct-20 23:06N 26°28' W 080°04'3 4.5
2014-Oct-20 22:30N 26°25' W 080°04'5 5.5
2014-Oct-20 21:33N 26°20' W 080°05'5 5.3
2014-Oct-20 20:33N 26°15' W 080°05'5 5.4
2014-Oct-20 19:33N 26°09' W 080°06'5 4.7
2014-Oct-20 18:33N 26°05' W 080°07'5 5.2
2014-Oct-20 17:33N 25°59' W 080°07'5 4.9
2014-Oct-20 16:34N 25°55' W 080°08'8 0.3
2014-Oct-19 16:19N 25°46' W 080°09'1 0.2
2014-Oct-19 12:33N 25°46' W 080°09'3 3.0
2014-Oct-19 11:32N 25°49' W 080°10'0 0.0
2014-Oct-19 10:33N 25°49' W 080°10'0 0.0
2014-Oct-19 09:28N 25°49' W 080°10'0 0.0
2014-Oct-19 08:30N 25°49' W 080°10'3 2.3
2014-Oct-19 07:11N 25°46' W 080°09'1 1.2
2014-Oct-19 06:25N 25°46' W 080°09'2 2.8
2014-Oct-19 05:33N 25°49' W 080°10'0 0.2
2014-Oct-19 03:13N 25°49' W 080°10'2 0.4
2014-Oct-18 21:31N 25°47' W 080°10'2 1.0
2014-Oct-18 19:26N 25°49' W 080°10'2 1.0
2014-Oct-18 17:17N 25°47' W 080°10'2 2.1
2014-Oct-18 16:16N 25°49' W 080°10'2 2.4
2014-Oct-18 15:23N 25°47' W 080°10'2 0.4
2014-Oct-18 10:28N 25°49' W 080°10'1 0.1
2014-Oct-18 04:23N 25°49' W 080°10'3 0.4
2014-Oct-17 20:27N 25°46' W 080°09'3 1.7
2014-Oct-17 18:29N 25°49' W 080°10'0 0.2
2014-Oct-17 17:23N 25°49' W 080°11'0 0.1
2014-Oct-17 13:16N 25°49' W 080°10'0 0.1
2014-Oct-17 10:32N 25°49' W 080°10'1 0.1
2014-Oct-17 05:33N 25°49' W 080°10'2 1.5
2014-Oct-17 04:32N 25°48' W 080°11'2 1.4
2014-Oct-17 03:13N 25°46' W 080°09'3 2.5
2014-Oct-17 02:10N 25°49' W 080°10'3 4.4
2014-Oct-17 01:27N 25°46' W 080°08'3 0.6
2014-Oct-16 20:07N 25°49' W 080°10'0 0.0
2014-Oct-16 13:27N 25°49' W 080°10'3 3.0
2014-Oct-16 12:25N 25°46' W 080°09'3 0.7
2014-Oct-16 08:20N 25°48' W 080°11'1 0.9
2014-Oct-16 07:23N 25°49' W 080°11'0 0.0
2014-Oct-16 05:32N 25°49' W 080°11'0 0.4
2014-Oct-16 04:33N 25°49' W 080°10'3 3.0
2014-Oct-16 03:27N 25°46' W 080°08'3 3.1
2014-Oct-16 02:33N 25°48' W 080°11'2 1.6
2014-Oct-16 01:32N 25°49' W 080°10'3 2.4
2014-Oct-16 00:22N 25°46' W 080°09'0 0.0
2014-Oct-15 20:07N 25°46' W 080°09'3 5.1
2014-Oct-15 19:29N 25°49' W 080°10'3 1.4
2014-Oct-15 17:08N 25°46' W 080°09'3 5.3
2014-Oct-15 16:32N 25°49' W 080°11'2 1.7
2014-Oct-15 15:31N 25°47' W 080°11'2 0.2
2014-Oct-15 07:31N 25°49' W 080°10'2 0.6
2014-Oct-15 04:11N 25°47' W 080°10'2 3.1
2014-Oct-15 03:31N 25°49' W 080°10'  

Dump ship's entire track history